Bear Valley Mountain Weather




            Date and Time  Surv  Temp  Temp  Surv  Precip   Total   Moke   Moke   Moke  Koala  Koala  Koala
                           Temp 24 hr 24 hr    RH    Inch   24 hr     WS     WD     WS     WS     WD     WS
                          Deg F   Min   Max     %    Hour  Precip    mph   quad    Max    mph   quad    Max
-----------------------------------------------------------------------------------------------------------
    "2022-09-25 08:00:00"    54                43    0.00              6     SE     10      7    SSE     12
    "2022-09-25 09:00:00"    58                43    0.00              5     SE     11      7    SSE     13
    "2022-09-25 10:00:00"    61                36    0.00              4     SE     11      5    SSE     11
    "2022-09-25 11:00:00"    63                44    0.00              5    SSE     16      8    SSE     16
    "2022-09-25 12:00:00"    67                39    0.00              5    SSE     13     10      S     21
    "2022-09-25 13:00:00"    67                40    0.00              5     SE     13      8      S     19
    "2022-09-25 14:00:00"    69                36    0.00              4      S     10      6      S     17
    "2022-09-25 15:00:00"    67                39    0.00              3      S     12      5    SSW     18
    "2022-09-25 16:00:00"    67                39    0.00              3      S      9      4      S     18
    "2022-09-25 17:00:00"    66                44    0.00              1     NW      7      3     SW     14
    "2022-09-25 18:00:00"    64                46    0.00              3    SSW      9      5    SSW     13
    "2022-09-25 19:00:00"    60                56    0.00              0    SSW      4      2      S      6
    "2022-09-25 20:00:00"    58                58    0.00              2     SE      7      4     SE      8
    "2022-09-25 21:00:00"    60                53    0.00              8    ESE     11      6    SSE      9
    "2022-09-25 22:00:00"    60                51    0.00              6    ESE     11      5     SE     11
    "2022-09-25 23:00:00"    59                41    0.00              5    ESE     11      6     SE     11
    "2022-09-26 00:00:00"    59                35    0.00              7    ESE     11      6     SE     10
    "2022-09-26 01:00:00"    58                42    0.00              6     SE     11      6    SSE     10
    "2022-09-26 02:00:00"    57                50    0.00              5    SSE     10      7    SSE     12
    "2022-09-26 03:00:00"    55                57    0.00              4    SSE      8      6    SSE      9
    "2022-09-26 04:00:00"    55                55    0.00              4    SSE      8      7    SSE     10
    "2022-09-26 05:00:00"    55                54    0.00              6    SSE     10      9    SSE     13
    "2022-09-26 06:00:00"    53                57    0.00              5    SSE      8      6    SSE     11
    "2022-09-26 07:00:00"    56    53    69    53    0.00    0.00      6    SSE      9      6     SE     10
    "2022-09-26 08:00:00"    55                60    0.00              5     SE      9      6     SE     10
    "2022-09-26 09:00:00"    61                48    0.00              6     SE     12      8    SSE     14
    "2022-09-26 10:00:00"    63                45    0.00              6    SSE     12      7    SSE     15
    "2022-09-26 11:00:00"    65                40    0.00              5    SSE     12      7    SSE     16
    "2022-09-26 12:00:00"    69                31    0.00              6    SSE     14      9      S     20
    "2022-09-26 13:00:00"    69                35    0.00              5      S     14      9      S     28
    "2022-09-26 14:00:00"    68                30    0.00              5    SSW     15      8    SSW     23
    "2022-09-26 15:00:00"    68                32    0.00              3    SSW     10      8      S     20
    "2022-09-26 16:00:00"    68                27    0.00              4    SSW     12      7      S     22
    "2022-09-26 17:00:00"    68                30    0.00              4     SW     11      8    SSW     22
    "2022-09-26 18:00:00"    64                38    0.00              3     SW      9      7    SSW     18
    "2022-09-26 19:00:00"    59                49    0.00              3    SSW      8      4    SSW     12
    "2022-09-26 20:00:00"    57                55    0.00              5      S      8      6      S     11
    "2022-09-26 21:00:00"    56                59    0.00              2    SSE      7      5    SSE     10
    "2022-09-26 22:00:00"    56                59    0.00              4    SSE      8      6    SSE     10
    "2022-09-26 23:00:00"    54                59    0.00              3    SSE      7      5    SSE      8
    "2022-09-27 00:00:00"    55                52    0.00              5     SE     10      5     SE      8
    "2022-09-27 01:00:00"    56                50    0.00              4    SSE      9      6    SSE     12
    "2022-09-27 02:00:00"    54                56    0.00              3    SSE     11      8      S     13
    "2022-09-27 03:00:00"    53                61    0.00              2    SSE      9      7      S     12
    "2022-09-27 04:00:00"    53                62    0.00              3    SSE     10      8    SSE     13
    "2022-09-27 05:00:00"    52                62    0.00              4    SSE      8      7    SSE     13
    "2022-09-27 06:00:00"    51                64    0.00              3    SSE      9      7    SSE     12
    "2022-09-27 07:00:00"    51    51    69    57    0.00    0.00      3    SSE      8      6    SSE     11
    "2022-09-27 08:00:00"    54                52    0.00              3    SSE      8      7    SSE     13
    "2022-09-27 09:00:00"    59                40    0.00              3    SSE     10      9    SSE     14
    "2022-09-27 10:00:00"    61                37    0.00              4    SSE     12      9      S     17
    "2022-09-27 11:00:00"    63                32    0.00              6    SSE     15     10      S     23